sensor_id;sensor_type;location;lat;lon;timestamp;temperature;humidity
2653;DHT22;1336;48.692;9.144;2022-12-29T06:00:16;11.30;97.20
2653;DHT22;1336;48.692;9.144;2022-12-29T06:01:08;11.30;97.20
2653;DHT22;1336;48.692;9.144;2022-12-29T06:01:58;11.30;97.20
2653;DHT22;1336;48.692;9.144;2022-12-29T06:02:50;11.30;97.20
2653;DHT22;1336;48.692;9.144;2022-12-29T06:03:41;11.40;97.20
2653;DHT22;1336;48.692;9.144;2022-12-29T06:04:33;11.40;97.20
2653;DHT22;1336;48.692;9.144;2022-12-29T06:05:24;11.30;97.20
2653;DHT22;1336;48.692;9.144;2022-12-29T06:06:16;11.30;97.20
2653;DHT22;1336;48.692;9.144;2022-12-29T06:07:06;11.30;97.20
2653;DHT22;1336;48.692;9.144;2022-12-29T06:07:58;11.30;97.20
2653;DHT22;1336;48.692;9.144;2022-12-29T06:08:49;11.30;97.20
2653;DHT22;1336;48.692;9.144;2022-12-29T06:09:40;11.30;97.20
2653;DHT22;1336;48.692;9.144;2022-12-29T06:10:31;11.30;97.20
2653;DHT22;1336;48.692;9.144;2022-12-29T06:11:23;11.30;97.20
2653;DHT22;1336;48.692;9.144;2022-12-29T06:12:14;11.30;97.20
2653;DHT22;1336;48.692;9.144;2022-12-29T06:13:05;11.30;97.20
2653;DHT22;1336;48.692;9.144;2022-12-29T06:13:56;11.30;97.20
2653;DHT22;1336;48.692;9.144;2022-12-29T06:14:48;11.30;97.20
2653;DHT22;1336;48.692;9.144;2022-12-29T06:15:40;11.30;97.20
2653;DHT22;1336;48.692;9.144;2022-12-29T06:16:31;11.30;97.20
2653;DHT22;1336;48.692;9.144;2022-12-29T06:17:22;11.30;97.20
2653;DHT22;1336;48.692;9.144;2022-12-29T06:18:14;11.30;97.20
2653;DHT22;1336;48.692;9.144;2022-12-29T06:19:04;11.30;97.20
2653;DHT22;1336;48.692;9.144;2022-12-29T06:19:56;11.30;97.20
2653;DHT22;1336;48.692;9.144;2022-12-29T06:20:47;11.30;97.20
2653;DHT22;1336;48.692;9.144;2022-12-29T06:21:39;11.30;97.20
2653;DHT22;1336;48.692;9.144;2022-12-29T06:22:30;11.30;97.20
2653;DHT22;1336;48.692;9.144;2022-12-29T06:23:21;11.20;97.20
2653;DHT22;1336;48.692;9.144;2022-12-29T06:24:12;11.20;97.20
2653;DHT22;1336;48.692;9.144;2022-12-29T06:25:04;11.20;97.20
2653;DHT22;1336;48.692;9.144;2022-12-29T06:25:56;11.20;97.20
2653;DHT22;1336;48.692;9.144;2022-12-29T06:26:47;11.20;97.20
2653;DHT22;1336;48.692;9.144;2022-12-29T06:27:38;11.20;97.20
2653;DHT22;1336;48.692;9.144;2022-12-29T06:28:30;11.10;97.20
2653;DHT22;1336;48.692;9.144;2022-12-29T06:29:21;11.10;97.20
2653;DHT22;1336;48.692;9.144;2022-12-29T06:30:12;11.10;97.20
2653;DHT22;1336;48.692;9.144;2022-12-29T06:31:05;11.10;97.20
2653;DHT22;1336;48.692;9.144;2022-12-29T06:31:59;11.10;97.20
2653;DHT22;1336;48.692;9.144;2022-12-29T06:32:50;11.10;97.20
2653;DHT22;1336;48.692;9.144;2022-12-29T06:33:42;11.10;97.20
2653;DHT22;1336;48.692;9.144;2022-12-29T06:34:33;11.10;97.20
2653;DHT22;1336;48.692;9.144;2022-12-29T06:35:25;11.10;97.20
2653;DHT22;1336;48.692;9.144;2022-12-29T06:36:15;11.20;97.20
2653;DHT22;1336;48.692;9.144;2022-12-29T06:37:07;11.20;97.20
2653;DHT22;1336;48.692;9.144;2022-12-29T06:37:58;11.20;97.20
2653;DHT22;1336;48.692;9.144;2022-12-29T06:38:49;11.20;97.20
2653;DHT22;1336;48.692;9.144;2022-12-29T06:39:42;11.20;97.20
2653;DHT22;1336;48.692;9.144;2022-12-29T06:40:34;11.20;97.20
2653;DHT22;1336;48.692;9.144;2022-12-29T06:41:25;11.20;97.20
2653;DHT22;1336;48.692;9.144;2022-12-29T06:42:16;11.20;97.20
2653;DHT22;1336;48.692;9.144;2022-12-29T06:43:07;11.20;97.20
2653;DHT22;1336;48.692;9.144;2022-12-29T06:43:59;11.20;97.20
2653;DHT22;1336;48.692;9.144;2022-12-29T06:44:50;11.20;97.20
2653;DHT22;1336;48.692;9.144;2022-12-29T06:45:43;11.20;97.20
2653;DHT22;1336;48.692;9.144;2022-12-29T06:46:35;11.20;97.20
2653;DHT22;1336;48.692;9.144;2022-12-29T06:47:26;11.20;97.20
2653;DHT22;1336;48.692;9.144;2022-12-29T06:48:17;11.20;97.20
2653;DHT22;1336;48.692;9.144;2022-12-29T06:49:09;11.20;97.20
2653;DHT22;1336;48.692;9.144;2022-12-29T06:50:00;11.20;97.20
2653;DHT22;1336;48.692;9.144;2022-12-29T06:50:51;11.20;97.20
2653;DHT22;1336;48.692;9.144;2022-12-29T06:51:42;11.20;97.20
2653;DHT22;1336;48.692;9.144;2022-12-29T06:52:34;11.20;97.20
2653;DHT22;1336;48.692;9.144;2022-12-29T06:53:25;11.20;97.20
2653;DHT22;1336;48.692;9.144;2022-12-29T06:54:17;11.20;97.20
2653;DHT22;1336;48.692;9.144;2022-12-29T06:55:08;11.20;97.20
2653;DHT22;1336;48.692;9.144;2022-12-29T06:56:00;11.20;97.20
2653;DHT22;1336;48.692;9.144;2022-12-29T06:56:50;11.20;97.20
2653;DHT22;1336;48.692;9.144;2022-12-29T06:57:42;11.20;97.20
2653;DHT22;1336;48.692;9.144;2022-12-29T06:58:33;11.20;97.20
2653;DHT22;1336;48.692;9.144;2022-12-29T06:59:24;11.20;97.20
2653;DHT22;1336;48.692;9.144;2022-12-29T07:00:16;11.20;97.20
2653;DHT22;1336;48.692;9.144;2022-12-29T07:01:08;11.20;97.20
2653;DHT22;1336;48.692;9.144;2022-12-29T07:02:00;11.20;97.20
2653;DHT22;1336;48.692;9.144;2022-12-29T07:02:54;11.20;97.20
2653;DHT22;1336;48.692;9.144;2022-12-29T07:03:45;11.10;97.20
2653;DHT22;1336;48.692;9.144;2022-12-29T07:04:37;11.10;97.20
2653;DHT22;1336;48.692;9.144;2022-12-29T07:05:27;11.10;97.20
2653;DHT22;1336;48.692;9.144;2022-12-29T07:06:21;11.10;97.20
2653;DHT22;1336;48.692;9.144;2022-12-29T07:07:12;11.10;97.20
2653;DHT22;1336;48.692;9.144;2022-12-29T07:08:04;11.10;97.20
2653;DHT22;1336;48.692;9.144;2022-12-29T07:08:55;11.10;97.20
2653;DHT22;1336;48.692;9.144;2022-12-29T07:09:47;11.10;97.20
2653;DHT22;1336;48.692;9.144;2022-12-29T07:10:38;11.10;97.20
2653;DHT22;1336;48.692;9.144;2022-12-29T07:11:30;11.10;97.20
2653;DHT22;1336;48.692;9.144;2022-12-29T07:12:20;11.10;97.20
2653;DHT22;1336;48.692;9.144;2022-12-29T07:13:12;11.10;97.20
2653;DHT22;1336;48.692;9.144;2022-12-29T07:14:03;11.10;97.20
2653;DHT22;1336;48.692;9.144;2022-12-29T07:14:55;11.10;97.20
2653;DHT22;1336;48.692;9.144;2022-12-29T07:15:46;11.10;97.20
2653;DHT22;1336;48.692;9.144;2022-12-29T07:16:37;11.10;97.20
2653;DHT22;1336;48.692;9.144;2022-12-29T07:17:29;11.10;97.20
2653;DHT22;1336;48.692;9.144;2022-12-29T07:18:21;11.10;97.20
2653;DHT22;1336;48.692;9.144;2022-12-29T07:19:12;11.10;97.20
2653;DHT22;1336;48.692;9.144;2022-12-29T07:20:05;11.00;97.20
2653;DHT22;1336;48.692;9.144;2022-12-29T07:20:55;11.00;97.20
2653;DHT22;1336;48.692;9.144;2022-12-29T07:21:47;11.00;97.20
2653;DHT22;1336;48.692;9.144;2022-12-29T07:22:38;11.00;97.20
2653;DHT22;1336;48.692;9.144;2022-12-29T07:23:30;11.00;97.20
2653;DHT22;1336;48.692;9.144;2022-12-29T07:24:21;10.90;97.20
2653;DHT22;1336;48.692;9.144;2022-12-29T07:25:13;10.90;97.20
2653;DHT22;1336;48.692;9.144;2022-12-29T07:26:06;10.90;97.20
2653;DHT22;1336;48.692;9.144;2022-12-29T07:26:57;10.90;97.20
2653;DHT22;1336;48.692;9.144;2022-12-29T07:27:49;10.90;97.20
2653;DHT22;1336;48.692;9.144;2022-12-29T07:28:41;10.90;97.20
2653;DHT22;1336;48.692;9.144;2022-12-29T07:29:32;10.90;97.20
2653;DHT22;1336;48.692;9.144;2022-12-29T07:30:24;10.90;97.20
2653;DHT22;1336;48.692;9.144;2022-12-29T07:31:16;10.90;97.20
2653;DHT22;1336;48.692;9.144;2022-12-29T07:32:08;10.90;97.20
2653;DHT22;1336;48.692;9.144;2022-12-29T07:33:00;10.90;97.20
2653;DHT22;1336;48.692;9.144;2022-12-29T07:33:52;10.90;97.20
2653;DHT22;1336;48.692;9.144;2022-12-29T07:34:42;10.90;97.20
2653;DHT22;1336;48.692;9.144;2022-12-29T07:35:35;10.90;97.20
2653;DHT22;1336;48.692;9.144;2022-12-29T07:36:26;10.90;97.20
2653;DHT22;1336;48.692;9.144;2022-12-29T07:37:18;11.00;97.20
2653;DHT22;1336;48.692;9.144;2022-12-29T07:38:09;11.00;97.20
2653;DHT22;1336;48.692;9.144;2022-12-29T07:39:00;11.00;97.20
2653;DHT22;1336;48.692;9.144;2022-12-29T07:39:51;11.00;97.20
2653;DHT22;1336;48.692;9.144;2022-12-29T07:40:43;11.00;97.20
2653;DHT22;1336;48.692;9.144;2022-12-29T07:41:34;11.00;97.20
2653;DHT22;1336;48.692;9.144;2022-12-29T07:42:26;11.00;97.20
2653;DHT22;1336;48.692;9.144;2022-12-29T07:43:17;11.00;97.20
2653;DHT22;1336;48.692;9.144;2022-12-29T07:44:08;11.00;97.20
2653;DHT22;1336;48.692;9.144;2022-12-29T07:44:59;11.00;97.20
2653;DHT22;1336;48.692;9.144;2022-12-29T07:45:51;11.00;97.20
2653;DHT22;1336;48.692;9.144;2022-12-29T07:46:42;11.10;97.20
2653;DHT22;1336;48.692;9.144;2022-12-29T07:47:34;11.10;97.20
2653;DHT22;1336;48.692;9.144;2022-12-29T07:48:26;11.10;97.20
2653;DHT22;1336;48.692;9.144;2022-12-29T07:49:18;11.10;97.20
2653;DHT22;1336;48.692;9.144;2022-12-29T07:50:08;11.10;97.20
2653;DHT22;1336;48.692;9.144;2022-12-29T07:51:00;11.10;97.20
2653;DHT22;1336;48.692;9.144;2022-12-29T07:51:51;11.10;97.20
2653;DHT22;1336;48.692;9.144;2022-12-29T07:52:42;11.20;97.20
2653;DHT22;1336;48.692;9.144;2022-12-29T07:53:33;11.20;97.20
2653;DHT22;1336;48.692;9.144;2022-12-29T07:54:25;11.20;97.20
2653;DHT22;1336;48.692;9.144;2022-12-29T07:55:16;11.20;97.20
2653;DHT22;1336;48.692;9.144;2022-12-29T07:56:08;11.20;97.20
2653;DHT22;1336;48.692;9.144;2022-12-29T07:56:58;11.30;97.20
2653;DHT22;1336;48.692;9.144;2022-12-29T07:57:53;11.30;97.20
2653;DHT22;1336;48.692;9.144;2022-12-29T07:58:43;11.30;97.20
2653;DHT22;1336;48.692;9.144;2022-12-29T07:59:35;11.40;97.20
2653;DHT22;1336;48.692;9.144;2022-12-29T08:00:26;11.30;97.20
2653;DHT22;1336;48.692;9.144;2022-12-29T08:01:18;11.40;97.20
2653;DHT22;1336;48.692;9.144;2022-12-29T08:02:10;11.40;97.20
2653;DHT22;1336;48.692;9.144;2022-12-29T08:03:02;11.40;97.20
2653;DHT22;1336;48.692;9.144;2022-12-29T08:03:54;11.40;97.20
2653;DHT22;1336;48.692;9.144;2022-12-29T08:04:46;11.40;97.20
2653;DHT22;1336;48.692;9.144;2022-12-29T08:05:36;11.40;97.20
2653;DHT22;1336;48.692;9.144;2022-12-29T08:06:28;11.40;97.20
2653;DHT22;1336;48.692;9.144;2022-12-29T08:07:20;11.40;97.20
2653;DHT22;1336;48.692;9.144;2022-12-29T08:08:12;11.40;97.20
2653;DHT22;1336;48.692;9.144;2022-12-29T08:09:03;11.40;97.20
2653;DHT22;1336;48.692;9.144;2022-12-29T08:09:55;11.50;97.20
2653;DHT22;1336;48.692;9.144;2022-12-29T08:10:46;11.50;97.20
2653;DHT22;1336;48.692;9.144;2022-12-29T08:11:37;11.50;97.20
2653;DHT22;1336;48.692;9.144;2022-12-29T08:12:28;11.50;97.20
2653;DHT22;1336;48.692;9.144;2022-12-29T08:13:20;11.50;97.20
2653;DHT22;1336;48.692;9.144;2022-12-29T08:14:11;11.50;97.20
2653;DHT22;1336;48.692;9.144;2022-12-29T08:15:03;11.50;97.20
2653;DHT22;1336;48.692;9.144;2022-12-29T08:15:54;11.60;97.20
2653;DHT22;1336;48.692;9.144;2022-12-29T08:16:46;11.60;97.20
2653;DHT22;1336;48.692;9.144;2022-12-29T08:17:37;11.60;97.20
2653;DHT22;1336;48.692;9.144;2022-12-29T08:18:29;11.60;97.20
2653;DHT22;1336;48.692;9.144;2022-12-29T08:19:21;11.60;97.20
2653;DHT22;1336;48.692;9.144;2022-12-29T08:20:13;11.60;97.20
2653;DHT22;1336;48.692;9.144;2022-12-29T08:21:04;11.60;97.20
2653;DHT22;1336;48.692;9.144;2022-12-29T08:21:56;11.60;97.20
2653;DHT22;1336;48.692;9.144;2022-12-29T08:22:47;11.60;97.20
2653;DHT22;1336;48.692;9.144;2022-12-29T08:23:38;11.60;97.20
2653;DHT22;1336;48.692;9.144;2022-12-29T08:24:29;11.60;97.20
2653;DHT22;1336;48.692;9.144;2022-12-29T08:25:21;11.60;97.20
2653;DHT22;1336;48.692;9.144;2022-12-29T08:26:11;11.60;97.20
2653;DHT22;1336;48.692;9.144;2022-12-29T08:27:03;11.60;97.20
2653;DHT22;1336;48.692;9.144;2022-12-29T08:27:54;11.70;97.20
2653;DHT22;1336;48.692;9.144;2022-12-29T08:28:46;11.70;97.20
2653;DHT22;1336;48.692;9.144;2022-12-29T08:29:36;11.70;97.20
2653;DHT22;1336;48.692;9.144;2022-12-29T08:30:28;11.70;97.20
2653;DHT22;1336;48.692;9.144;2022-12-29T08:31:19;11.70;97.20
2653;DHT22;1336;48.692;9.144;2022-12-29T08:32:11;11.70;97.20
2653;DHT22;1336;48.692;9.144;2022-12-29T08:33:01;11.70;97.20
2653;DHT22;1336;48.692;9.144;2022-12-29T08:33:53;11.70;97.20
2653;DHT22;1336;48.692;9.144;2022-12-29T08:34:45;11.70;97.20
2653;DHT22;1336;48.692;9.144;2022-12-29T08:35:37;11.80;97.20
2653;DHT22;1336;48.692;9.144;2022-12-29T08:36:28;11.80;97.20
2653;DHT22;1336;48.692;9.144;2022-12-29T08:37:20;11.80;97.20
2653;DHT22;1336;48.692;9.144;2022-12-29T08:38:10;11.80;97.20
2653;DHT22;1336;48.692;9.144;2022-12-29T08:39:03;11.80;97.20
2653;DHT22;1336;48.692;9.144;2022-12-29T08:39:54;11.80;97.20
2653;DHT22;1336;48.692;9.144;2022-12-29T08:40:46;11.80;97.20
2653;DHT22;1336;48.692;9.144;2022-12-29T08:41:36;11.90;97.20
2653;DHT22;1336;48.692;9.144;2022-12-29T08:42:28;11.90;97.20
2653;DHT22;1336;48.692;9.144;2022-12-29T08:43:21;11.90;97.20
2653;DHT22;1336;48.692;9.144;2022-12-29T08:44:13;11.90;97.20
2653;DHT22;1336;48.692;9.144;2022-12-29T08:45:04;11.90;97.20
2653;DHT22;1336;48.692;9.144;2022-12-29T08:45:57;11.90;97.20
2653;DHT22;1336;48.692;9.144;2022-12-29T08:46:48;12.00;97.20
2653;DHT22;1336;48.692;9.144;2022-12-29T08:47:39;12.00;97.20
2653;DHT22;1336;48.692;9.144;2022-12-29T08:48:30;12.00;97.20
2653;DHT22;1336;48.692;9.144;2022-12-29T08:49:22;12.00;97.20
2653;DHT22;1336;48.692;9.144;2022-12-29T08:50:14;12.00;97.20
2653;DHT22;1336;48.692;9.144;2022-12-29T08:51:06;12.00;97.20
2653;DHT22;1336;48.692;9.144;2022-12-29T08:51:57;12.10;97.20
2653;DHT22;1336;48.692;9.144;2022-12-29T08:52:48;12.10;97.20
2653;DHT22;1336;48.692;9.144;2022-12-29T08:53:39;12.10;97.20
2653;DHT22;1336;48.692;9.144;2022-12-29T08:54:31;12.10;97.20
2653;DHT22;1336;48.692;9.144;2022-12-29T08:55:21;12.20;97.20
2653;DHT22;1336;48.692;9.144;2022-12-29T08:56:13;12.20;97.20
2653;DHT22;1336;48.692;9.144;2022-12-29T08:57:04;12.10;97.20
2653;DHT22;1336;48.692;9.144;2022-12-29T08:57:55;12.20;97.20
2653;DHT22;1336;48.692;9.144;2022-12-29T08:58:46;12.10;97.20
2653;DHT22;1336;48.692;9.144;2022-12-29T08:59:38;12.10;97.20
2653;DHT22;1336;48.692;9.144;2022-12-29T09:00:29;12.20;97.20
2653;DHT22;1336;48.692;9.144;2022-12-29T09:01:20;12.20;97.20
2653;DHT22;1336;48.692;9.144;2022-12-29T09:02:11;12.20;97.20
2653;DHT22;1336;48.692;9.144;2022-12-29T09:03:03;12.20;97.20
2653;DHT22;1336;48.692;9.144;2022-12-29T09:03:54;12.20;97.20
2653;DHT22;1336;48.692;9.144;2022-12-29T09:04:46;12.20;97.20
2653;DHT22;1336;48.692;9.144;2022-12-29T09:05:38;12.20;97.20
2653;DHT22;1336;48.692;9.144;2022-12-29T09:06:30;12.20;97.20
2653;DHT22;1336;48.692;9.144;2022-12-29T09:07:20;12.20;97.20
2653;DHT22;1336;48.692;9.144;2022-12-29T09:08:15;12.20;97.20
2653;DHT22;1336;48.692;9.144;2022-12-29T09:09:06;12.20;97.20
2653;DHT22;1336;48.692;9.144;2022-12-29T09:09:58;12.20;97.20
2653;DHT22;1336;48.692;9.144;2022-12-29T09:10:49;12.20;97.20
2653;DHT22;1336;48.692;9.144;2022-12-29T09:11:41;12.20;97.20
2653;DHT22;1336;48.692;9.144;2022-12-29T09:12:32;12.20;97.20
2653;DHT22;1336;48.692;9.144;2022-12-29T09:13:23;12.20;97.20
2653;DHT22;1336;48.692;9.144;2022-12-29T09:14:14;12.20;97.20
2653;DHT22;1336;48.692;9.144;2022-12-29T09:15:07;12.20;97.20
2653;DHT22;1336;48.692;9.144;2022-12-29T09:15:58;12.20;97.20
2653;DHT22;1336;48.692;9.144;2022-12-29T09:16:51;12.20;97.20
2653;DHT22;1336;48.692;9.144;2022-12-29T09:18:01;12.20;97.20
2653;DHT22;1336;48.692;9.144;2022-12-29T09:18:51;12.20;97.20
2653;DHT22;1336;48.692;9.144;2022-12-29T09:19:43;12.20;97.20
2653;DHT22;1336;48.692;9.144;2022-12-29T09:20:34;12.20;97.20
2653;DHT22;1336;48.692;9.144;2022-12-29T09:21:27;12.30;97.20
2653;DHT22;1336;48.692;9.144;2022-12-29T09:22:18;12.30;97.20
2653;DHT22;1336;48.692;9.144;2022-12-29T09:23:10;12.30;97.20
2653;DHT22;1336;48.692;9.144;2022-12-29T09:24:03;12.30;97.20
2653;DHT22;1336;48.692;9.144;2022-12-29T09:24:55;12.30;97.20
2653;DHT22;1336;48.692;9.144;2022-12-29T09:25:47;12.30;97.20
2653;DHT22;1336;48.692;9.144;2022-12-29T09:26:39;12.30;97.20
2653;DHT22;1336;48.692;9.144;2022-12-29T09:27:29;12.20;97.20
2653;DHT22;1336;48.692;9.144;2022-12-29T09:28:21;12.30;97.20
2653;DHT22;1336;48.692;9.144;2022-12-29T09:29:12;12.30;97.20
2653;DHT22;1336;48.692;9.144;2022-12-29T09:30:06;12.30;97.20
2653;DHT22;1336;48.692;9.144;2022-12-29T09:30:58;12.30;97.20
2653;DHT22;1336;48.692;9.144;2022-12-29T09:31:49;12.30;97.20
2653;DHT22;1336;48.692;9.144;2022-12-29T09:32:41;12.30;97.20
2653;DHT22;1336;48.692;9.144;2022-12-29T09:33:32;12.30;97.20
2653;DHT22;1336;48.692;9.144;2022-12-29T09:34:24;12.30;97.20
2653;DHT22;1336;48.692;9.144;2022-12-29T09:35:15;12.30;97.20
2653;DHT22;1336;48.692;9.144;2022-12-29T09:36:08;12.30;97.20
2653;DHT22;1336;48.692;9.144;2022-12-29T09:37:00;12.30;97.20
2653;DHT22;1336;48.692;9.144;2022-12-29T09:37:52;12.40;97.20
2653;DHT22;1336;48.692;9.144;2022-12-29T09:38:44;12.40;97.20
2653;DHT22;1336;48.692;9.144;2022-12-29T09:39:34;12.40;97.20
2653;DHT22;1336;48.692;9.144;2022-12-29T09:40:29;12.40;97.20
2653;DHT22;1336;48.692;9.144;2022-12-29T09:41:24;12.50;97.20
2653;DHT22;1336;48.692;9.144;2022-12-29T09:42:23;12.50;97.20
2653;DHT22;1336;48.692;9.144;2022-12-29T09:43:30;12.50;97.20
2653;DHT22;1336;48.692;9.144;2022-12-29T09:44:29;12.60;97.20
2653;DHT22;1336;48.692;9.144;2022-12-29T09:45:27;12.60;97.20
2653;DHT22;1336;48.692;9.144;2022-12-29T09:46:24;12.60;97.20
2653;DHT22;1336;48.692;9.144;2022-12-29T09:47:17;12.60;97.20
2653;DHT22;1336;48.692;9.144;2022-12-29T09:48:14;12.60;97.20
2653;DHT22;1336;48.692;9.144;2022-12-29T09:49:17;12.60;97.20
2653;DHT22;1336;48.692;9.144;2022-12-29T09:50:17;12.60;97.20
2653;DHT22;1336;48.692;9.144;2022-12-29T09:51:17;12.60;97.20
2653;DHT22;1336;48.692;9.144;2022-12-29T09:52:14;12.60;97.20
2653;DHT22;1336;48.692;9.144;2022-12-29T09:53:13;12.60;97.20
2653;DHT22;1336;48.692;9.144;2022-12-29T09:54:23;12.70;97.20
2653;DHT22;1336;48.692;9.144;2022-12-29T09:55:17;12.70;97.20
2653;DHT22;1336;48.692;9.144;2022-12-29T09:56:15;12.70;97.20
2653;DHT22;1336;48.692;9.144;2022-12-29T09:57:13;12.70;97.20
2653;DHT22;1336;48.692;9.144;2022-12-29T09:58:13;12.70;97.20
2653;DHT22;1336;48.692;9.144;2022-12-29T09:59:10;12.80;97.20
2653;DHT22;1336;48.692;9.144;2022-12-29T10:00:10;12.80;97.20
2653;DHT22;1336;48.692;9.144;2022-12-29T10:01:07;12.80;97.20
2653;DHT22;1336;48.692;9.144;2022-12-29T10:02:11;12.90;97.20
2653;DHT22;1336;48.692;9.144;2022-12-29T10:03:14;12.90;97.20
2653;DHT22;1336;48.692;9.144;2022-12-29T10:04:07;12.90;97.20
2653;DHT22;1336;48.692;9.144;2022-12-29T10:04:58;12.90;97.20
2653;DHT22;1336;48.692;9.144;2022-12-29T10:05:52;12.90;97.20
2653;DHT22;1336;48.692;9.144;2022-12-29T10:06:49;12.90;97.20
2653;DHT22;1336;48.692;9.144;2022-12-29T10:07:49;12.80;97.20
2653;DHT22;1336;48.692;9.144;2022-12-29T10:08:46;12.80;97.20
2653;DHT22;1336;48.692;9.144;2022-12-29T10:09:45;12.80;97.20
2653;DHT22;1336;48.692;9.144;2022-12-29T10:10:42;12.80;97.20
2653;DHT22;1336;48.692;9.144;2022-12-29T10:11:50;12.80;97.20
2653;DHT22;1336;48.692;9.144;2022-12-29T10:13:00;12.70;97.20
2653;DHT22;1336;48.692;9.144;2022-12-29T10:14:11;12.70;97.20
2653;DHT22;1336;48.692;9.144;2022-12-29T10:15:08;12.70;97.20
2653;DHT22;1336;48.692;9.144;2022-12-29T10:16:09;12.60;97.20
2653;DHT22;1336;48.692;9.144;2022-12-29T10:17:10;12.60;97.20
2653;DHT22;1336;48.692;9.144;2022-12-29T10:18:18;12.60;97.20
2653;DHT22;1336;48.692;9.144;2022-12-29T10:19:33;12.60;97.20
2653;DHT22;1336;48.692;9.144;2022-12-29T10:20:33;12.60;97.20
2653;DHT22;1336;48.692;9.144;2022-12-29T10:21:40;12.60;97.20
2653;DHT22;1336;48.692;9.144;2022-12-29T10:22:45;12.60;97.20
2653;DHT22;1336;48.692;9.144;2022-12-29T10:23:40;12.60;97.20
2653;DHT22;1336;48.692;9.144;2022-12-29T10:24:34;12.70;97.20
2653;DHT22;1336;48.692;9.144;2022-12-29T10:25:31;12.70;97.20
2653;DHT22;1336;48.692;9.144;2022-12-29T10:26:26;12.70;97.20
2653;DHT22;1336;48.692;9.144;2022-12-29T10:27:18;12.80;97.20
2653;DHT22;1336;48.692;9.144;2022-12-29T10:28:15;12.80;97.20
2653;DHT22;1336;48.692;9.144;2022-12-29T10:29:15;12.80;97.20
2653;DHT22;1336;48.692;9.144;2022-12-29T10:30:12;12.80;97.20
2653;DHT22;1336;48.692;9.144;2022-12-29T10:31:06;12.90;97.20
2653;DHT22;1336;48.692;9.144;2022-12-29T10:32:00;12.90;97.20
2653;DHT22;1336;48.692;9.144;2022-12-29T10:32:56;12.90;97.20
2653;DHT22;1336;48.692;9.144;2022-12-29T10:33:50;12.90;97.20
2653;DHT22;1336;48.692;9.144;2022-12-29T10:34:46;13.00;97.20
2653;DHT22;1336;48.692;9.144;2022-12-29T10:35:40;13.00;97.20
2653;DHT22;1336;48.692;9.144;2022-12-29T10:36:37;13.00;97.20
2653;DHT22;1336;48.692;9.144;2022-12-29T10:37:33;13.10;97.20
2653;DHT22;1336;48.692;9.144;2022-12-29T10:38:30;13.10;97.20
2653;DHT22;1336;48.692;9.144;2022-12-29T10:39:29;13.10;97.20
2653;DHT22;1336;48.692;9.144;2022-12-29T10:40:26;13.10;97.20
2653;DHT22;1336;48.692;9.144;2022-12-29T10:41:22;13.10;97.20
2653;DHT22;1336;48.692;9.144;2022-12-29T10:42:27;13.20;97.20
2653;DHT22;1336;48.692;9.144;2022-12-29T10:43:24;13.30;97.20
2653;DHT22;1336;48.692;9.144;2022-12-29T10:44:16;13.60;97.20
2653;DHT22;1336;48.692;9.144;2022-12-29T10:45:12;15.50;97.20
2653;DHT22;1336;48.692;9.144;2022-12-29T10:46:07;17.60;97.20
2653;DHT22;1336;48.692;9.144;2022-12-29T10:47:04;19.40;97.20
2653;DHT22;1336;48.692;9.144;2022-12-29T10:48:00;21.60;97.20
2653;DHT22;1336;48.692;9.144;2022-12-29T10:48:53;23.10;97.20
2653;DHT22;1336;48.692;9.144;2022-12-29T10:49:46;23.40;97.20
2653;DHT22;1336;48.692;9.144;2022-12-29T10:50:38;23.30;97.20
2653;DHT22;1336;48.692;9.144;2022-12-29T10:51:37;22.80;97.20
2653;DHT22;1336;48.692;9.144;2022-12-29T10:52:30;22.20;97.20
2653;DHT22;1336;48.692;9.144;2022-12-29T10:53:27;21.50;97.20
2653;DHT22;1336;48.692;9.144;2022-12-29T10:54:25;20.80;97.20
2653;DHT22;1336;48.692;9.144;2022-12-29T10:55:22;20.00;97.20
2653;DHT22;1336;48.692;9.144;2022-12-29T10:56:25;19.30;97.20
2653;DHT22;1336;48.692;9.144;2022-12-29T10:57:24;18.60;97.20
2653;DHT22;1336;48.692;9.144;2022-12-29T10:58:17;18.10;97.20
2653;DHT22;1336;48.692;9.144;2022-12-29T10:59:14;17.60;97.20
2653;DHT22;1336;48.692;9.144;2022-12-29T11:00:11;17.10;97.20
2653;DHT22;1336;48.692;9.144;2022-12-29T11:01:04;16.70;97.20
2653;DHT22;1336;48.692;9.144;2022-12-29T11:02:00;16.40;97.20
2653;DHT22;1336;48.692;9.144;2022-12-29T11:03:39;16.10;97.20
2653;DHT22;1336;48.692;9.144;2022-12-29T11:04:48;15.80;97.20
2653;DHT22;1336;48.692;9.144;2022-12-29T11:05:44;15.50;97.20
2653;DHT22;1336;48.692;9.144;2022-12-29T11:06:37;15.20;97.20
2653;DHT22;1336;48.692;9.144;2022-12-29T11:07:28;15.10;97.20
2653;DHT22;1336;48.692;9.144;2022-12-29T11:08:25;14.90;97.20
2653;DHT22;1336;48.692;9.144;2022-12-29T11:09:23;14.70;97.20
2653;DHT22;1336;48.692;9.144;2022-12-29T11:10:18;14.60;97.20
2653;DHT22;1336;48.692;9.144;2022-12-29T11:11:10;14.50;97.20
2653;DHT22;1336;48.692;9.144;2022-12-29T11:12:18;14.40;97.20
2653;DHT22;1336;48.692;9.144;2022-12-29T11:13:16;14.30;97.20
2653;DHT22;1336;48.692;9.144;2022-12-29T11:14:12;14.20;97.20
2653;DHT22;1336;48.692;9.144;2022-12-29T11:15:13;14.10;97.20
2653;DHT22;1336;48.692;9.144;2022-12-29T11:16:05;14.00;97.20
2653;DHT22;1336;48.692;9.144;2022-12-29T11:16:58;13.90;97.20
2653;DHT22;1336;48.692;9.144;2022-12-29T11:17:53;13.90;97.20
2653;DHT22;1336;48.692;9.144;2022-12-29T11:18:46;13.90;97.20
2653;DHT22;1336;48.692;9.144;2022-12-29T11:19:37;13.90;97.20
2653;DHT22;1336;48.692;9.144;2022-12-29T11:20:32;13.90;97.20
2653;DHT22;1336;48.692;9.144;2022-12-29T11:21:34;13.90;97.20
2653;DHT22;1336;48.692;9.144;2022-12-29T11:22:30;13.90;97.20
2653;DHT22;1336;48.692;9.144;2022-12-29T11:23:24;13.90;97.20
2653;DHT22;1336;48.692;9.144;2022-12-29T11:24:23;13.80;97.20
2653;DHT22;1336;48.692;9.144;2022-12-29T11:25:15;13.80;97.20
2653;DHT22;1336;48.692;9.144;2022-12-29T11:26:17;13.80;97.20
2653;DHT22;1336;48.692;9.144;2022-12-29T11:27:14;13.70;97.20
2653;DHT22;1336;48.692;9.144;2022-12-29T11:28:16;13.70;97.20
2653;DHT22;1336;48.692;9.144;2022-12-29T11:29:21;13.60;97.20
2653;DHT22;1336;48.692;9.144;2022-12-29T11:30:23;13.60;97.20
2653;DHT22;1336;48.692;9.144;2022-12-29T11:31:16;13.60;97.20
2653;DHT22;1336;48.692;9.144;2022-12-29T11:32:12;13.50;97.20
2653;DHT22;1336;48.692;9.144;2022-12-29T11:33:04;13.50;97.20
2653;DHT22;1336;48.692;9.144;2022-12-29T11:33:55;13.50;97.20
2653;DHT22;1336;48.692;9.144;2022-12-29T11:34:47;13.50;97.20
2653;DHT22;1336;48.692;9.144;2022-12-29T11:35:41;13.50;97.20
2653;DHT22;1336;48.692;9.144;2022-12-29T11:36:34;13.40;97.20
2653;DHT22;1336;48.692;9.144;2022-12-29T11:37:28;13.40;97.20
2653;DHT22;1336;48.692;9.144;2022-12-29T11:38:23;13.40;97.20
2653;DHT22;1336;48.692;9.144;2022-12-29T11:39:28;13.40;97.20
2653;DHT22;1336;48.692;9.144;2022-12-29T11:40:21;13.50;97.20
2653;DHT22;1336;48.692;9.144;2022-12-29T11:41:13;13.50;97.20
2653;DHT22;1336;48.692;9.144;2022-12-29T11:42:14;13.60;97.20
2653;DHT22;1336;48.692;9.144;2022-12-29T11:43:06;13.70;97.20
2653;DHT22;1336;48.692;9.144;2022-12-29T11:43:59;13.80;97.20
2653;DHT22;1336;48.692;9.144;2022-12-29T11:44:52;13.80;97.20
2653;DHT22;1336;48.692;9.144;2022-12-29T11:45:45;13.90;97.20
2653;DHT22;1336;48.692;9.144;2022-12-29T11:46:37;13.90;97.20
2653;DHT22;1336;48.692;9.144;2022-12-29T11:47:31;13.90;97.20
2653;DHT22;1336;48.692;9.144;2022-12-29T11:48:23;13.80;97.20
2653;DHT22;1336;48.692;9.144;2022-12-29T11:49:20;13.80;97.20
2653;DHT22;1336;48.692;9.144;2022-12-29T11:50:18;13.80;97.20